Time;durP1;ratioP1;P1;durP2;ratioP2;P2;SDS_P1;SDS_P2;PMS_P1;PMS_P2;Temp;Humidity;BMP_temperature;BMP_pressure;BME280_temperature;BME280_humidity;BME280_pressure;Samples;Min_cycle;Max_cycle;Signal;HPM_P1;HPM_P2
2023/05/22 00:00:46;;;;;;;10.95;9.20;;;20.00;99.90;;;;;;2103232;28;20401;-72
2023/05/22 00:01:48;;;;;;;9.88;8.88;;;20.00;99.90;;;;;;2096416;28;20051;-72
2023/05/22 00:02:49;;;;;;;11.05;9.75;;;19.90;99.90;;;;;;2097344;28;20028;-72
2023/05/22 00:03:49;;;;;;;10.35;9.45;;;20.00;99.90;;;;;;2108560;28;20078;-72
2023/05/22 00:04:50;;;;;;;9.82;8.98;;;20.00;99.90;;;;;;2103817;28;20464;-72
2023/05/22 00:05:52;;;;;;;11.07;10.18;;;19.90;99.90;;;;;;2104334;28;20073;-72
2023/05/22 00:06:52;;;;;;;10.70;9.80;;;19.90;99.90;;;;;;2105780;28;20020;-72
2023/05/22 00:07:53;;;;;;;11.80;10.60;;;19.90;99.90;;;;;;2104224;28;20024;-72
2023/05/22 00:08:53;;;;;;;11.50;10.32;;;19.90;99.90;;;;;;2105889;28;20027;-72
2023/05/22 00:09:54;;;;;;;11.18;10.18;;;19.90;99.90;;;;;;2104330;28;20024;-72
2023/05/22 00:10:57;;;;;;;12.52;11.05;;;19.90;99.90;;;;;;2105569;28;20132;-72
2023/05/22 00:11:58;;;;;;;11.52;10.43;;;19.80;99.90;;;;;;2105350;28;20020;-72
2023/05/22 00:12:58;;;;;;;11.38;10.38;;;19.80;99.90;;;;;;2105073;28;20035;-72
2023/05/22 00:13:59;;;;;;;11.52;10.43;;;19.80;99.90;;;;;;2105216;28;20031;-72
2023/05/22 00:15:00;;;;;;;11.23;10.23;;;19.80;99.90;;;;;;2105642;28;20101;-72
2023/05/22 00:16:00;;;;;;;11.65;10.55;;;19.80;99.90;;;;;;2104534;28;20040;-72
2023/05/22 00:17:02;;;;;;;12.13;10.90;;;19.70;99.90;;;;;;2103983;28;20040;-72
2023/05/22 00:18:02;;;;;;;11.20;10.10;;;19.70;99.90;;;;;;2104162;28;20023;-72
2023/05/22 00:19:03;;;;;;;12.18;11.10;;;19.70;99.90;;;;;;2105689;28;20034;-72
2023/05/22 00:20:09;;;;;;;11.13;10.13;;;19.70;99.90;;;;;;2104366;28;20660;-72
2023/05/22 00:21:10;;;;;;;11.07;10.07;;;19.60;99.90;;;;;;2106036;28;20016;-72
2023/05/22 00:22:10;;;;;;;11.80;10.65;;;19.60;99.90;;;;;;2104991;28;20024;-72
2023/05/22 00:23:12;;;;;;;12.48;11.15;;;19.60;99.90;;;;;;2105734;28;20061;-72
2023/05/22 00:24:13;;;;;;;11.07;10.07;;;19.60;99.90;;;;;;2105060;28;20024;-72
2023/05/22 00:25:17;;;;;;;10.82;9.77;;;19.60;99.90;;;;;;2104962;28;20016;-72
2023/05/22 00:26:17;;;;;;;10.85;9.93;;;19.60;99.90;;;;;;2104465;28;20020;-72
2023/05/22 00:27:18;;;;;;;11.27;10.27;;;19.60;99.90;;;;;;2104682;28;20209;-72
2023/05/22 00:28:18;;;;;;;10.60;9.60;;;19.60;99.90;;;;;;2104566;28;20028;-72
2023/05/22 00:29:19;;;;;;;12.60;10.90;;;19.50;99.90;;;;;;2104654;28;20392;-72
2023/05/22 00:30:19;;;;;;;12.45;10.80;;;19.50;99.90;;;;;;2102330;28;20467;-72
2023/05/22 00:31:20;;;;;;;11.35;10.35;;;19.50;99.90;;;;;;2102918;28;20031;-72
2023/05/22 00:32:21;;;;;;;12.05;10.85;;;19.50;99.90;;;;;;2101099;28;20094;-72
2023/05/22 00:33:21;;;;;;;10.65;9.57;;;19.50;99.90;;;;;;2105185;28;20027;-72
2023/05/22 00:34:22;;;;;;;11.63;10.63;;;19.50;99.90;;;;;;2104365;28;20040;-72
2023/05/22 00:35:22;;;;;;;16.02;10.52;;;19.50;99.90;;;;;;2105504;28;20028;-72
2023/05/22 00:36:23;;;;;;;11.60;10.63;;;19.50;99.90;;;;;;2105883;28;20598;-72
2023/05/22 00:37:24;;;;;;;12.50;11.25;;;19.50;99.90;;;;;;2105637;28;20027;-72
2023/05/22 00:38:33;;;;;;;9.68;8.88;;;19.50;99.90;;;;;;2105127;28;20394;-72
2023/05/22 00:39:33;;;;;;;10.95;9.90;;;19.40;99.90;;;;;;2103406;28;20032;-72
2023/05/22 00:40:34;;;;;;;10.57;9.57;;;19.40;99.90;;;;;;2102665;28;20024;-72
2023/05/22 00:41:35;;;;;;;10.50;9.60;;;19.40;99.90;;;;;;2101241;28;20076;-72
2023/05/22 00:42:35;;;;;;;11.07;9.98;;;19.40;99.90;;;;;;2102083;28;20106;-72
2023/05/22 00:43:38;;;;;;;10.23;9.25;;;19.40;99.90;;;;;;2103434;28;20085;-72
2023/05/22 00:44:39;;;;;;;11.18;10.18;;;19.40;99.90;;;;;;2104047;28;20139;-72
2023/05/22 00:45:39;;;;;;;12.23;11.02;;;19.40;99.90;;;;;;2103537;28;20088;-72
2023/05/22 00:46:40;;;;;;;10.90;9.90;;;19.40;99.90;;;;;;2105181;28;20085;-72
2023/05/22 00:47:41;;;;;;;11.57;10.57;;;19.40;99.90;;;;;;2106670;28;20042;-72
2023/05/22 00:48:41;;;;;;;11.52;10.52;;;19.40;99.90;;;;;;2102574;28;20456;-72
2023/05/22 00:49:42;;;;;;;10.82;9.80;;;19.40;99.90;;;;;;2102806;28;20119;-72
2023/05/22 00:50:43;;;;;;;12.02;10.82;;;19.30;99.90;;;;;;2103429;28;20051;-72
2023/05/22 00:51:44;;;;;;;12.20;11.00;;;19.30;99.90;;;;;;2103060;28;20031;-72
2023/05/22 00:52:45;;;;;;;11.25;10.15;;;19.30;99.90;;;;;;2104723;28;20099;-72
2023/05/22 00:53:46;;;;;;;11.93;10.93;;;19.30;99.90;;;;;;2104798;28;20706;-72
2023/05/22 00:54:49;;;;;;;12.48;11.18;;;19.30;99.90;;;;;;2105488;28;20066;-72
2023/05/22 00:55:51;;;;;;;12.65;11.55;;;19.30;99.90;;;;;;2102574;28;20012;-72
2023/05/22 00:56:52;;;;;;;12.00;10.80;;;19.30;99.90;;;;;;2104083;28;20024;-72
2023/05/22 00:57:52;;;;;;;10.90;9.85;;;19.30;99.90;;;;;;2103213;28;20026;-72
2023/05/22 00:58:53;;;;;;;10.65;9.60;;;19.30;99.90;;;;;;2103172;28;20679;-72
2023/05/22 00:59:53;;;;;;;11.80;10.60;;;19.30;99.90;;;;;;2103375;28;20050;-72
2023/05/22 01:00:55;;;;;;;11.57;10.57;;;19.30;99.90;;;;;;2104974;28;20088;-72
2023/05/22 01:01:56;;;;;;;13.13;11.82;;;19.30;99.90;;;;;;2103678;28;20036;-72
2023/05/22 01:02:57;;;;;;;12.02;10.88;;;19.30;99.90;;;;;;2104444;28;20040;-72
2023/05/22 01:04:00;;;;;;;12.20;11.00;;;19.20;99.90;;;;;;2106757;28;20028;-72
2023/05/22 01:05:03;;;;;;;12.57;11.38;;;19.20;99.90;;;;;;2104291;28;20118;-72
2023/05/22 01:06:03;;;;;;;12.50;11.40;;;19.20;99.90;;;;;;2105473;28;20477;-72
2023/05/22 01:07:04;;;;;;;12.90;11.75;;;19.20;99.90;;;;;;2102280;28;20028;-72
2023/05/22 01:08:06;;;;;;;13.18;11.98;;;19.20;99.90;;;;;;2103463;28;20039;-72
2023/05/22 01:09:07;;;;;;;11.50;10.32;;;19.20;99.90;;;;;;2105313;28;20043;-72
2023/05/22 01:10:08;;;;;;;10.93;9.93;;;19.20;99.90;;;;;;2102720;28;20032;-72
2023/05/22 01:11:15;;;;;;;10.20;9.30;;;19.20;99.90;;;;;;2105350;28;20399;-72
2023/05/22 01:12:59;;;;;;;11.57;10.38;;;19.20;99.90;;;;;;2103336;28;20400;-72
2023/05/22 01:14:09;;;;;;;11.00;10.02;;;19.10;99.90;;;;;;2097289;28;20044;-72
2023/05/22 01:15:23;;;;;;;11.20;10.20;;;19.10;99.90;;;;;;2104233;28;20077;-72
2023/05/22 01:16:47;;;;;;;11.98;10.88;;;19.10;99.90;;;;;;2102964;28;20027;-72
2023/05/22 01:18:18;;;;;;;12.32;11.13;;;19.10;99.90;;;;;;2105058;28;20020;-72
2023/05/22 01:19:47;;;;;;;13.60;10.77;;;19.00;99.90;;;;;;2106502;28;20107;-72
2023/05/22 01:21:22;;;;;;;13.07;11.60;;;19.00;99.90;;;;;;2106570;28;20024;-72
2023/05/22 01:22:32;;;;;;;11.73;10.60;;;19.00;99.90;;;;;;2104238;28;20020;-72
2023/05/22 01:23:36;;;;;;;11.18;10.27;;;19.00;99.90;;;;;;2101486;28;20074;-72
2023/05/22 01:25:06;;;;;;;11.38;10.45;;;19.00;99.90;;;;;;2101917;28;20028;-72
2023/05/22 01:26:28;;;;;;;11.02;9.48;;;18.90;99.90;;;;;;2103403;28;20016;-72
2023/05/22 01:27:33;;;;;;;11.35;10.32;;;18.90;99.90;;;;;;2104914;28;20035;-72
2023/05/22 01:29:04;;;;;;;12.00;10.65;;;18.90;99.90;;;;;;2102972;28;20024;-72
2023/05/22 01:30:44;;;;;;;11.00;9.90;;;18.90;99.90;;;;;;2104205;28;20020;-72
2023/05/22 01:31:47;;;;;;;12.48;11.30;;;18.80;99.90;;;;;;2099025;28;20031;-72
2023/05/22 01:32:50;;;;;;;13.02;11.82;;;18.80;99.90;;;;;;2102960;28;20107;-72
2023/05/22 01:33:54;;;;;;;13.15;11.95;;;18.80;99.90;;;;;;2104280;28;20044;-72
2023/05/22 01:34:59;;;;;;;13.07;11.88;;;18.80;99.90;;;;;;2103527;28;20528;-72
2023/05/22 01:36:01;;;;;;;12.48;11.30;;;18.80;99.90;;;;;;2103309;28;20040;-72
2023/05/22 01:37:03;;;;;;;10.82;9.73;;;18.80;99.90;;;;;;2103419;28;20387;-72
2023/05/22 01:38:05;;;;;;;13.27;12.07;;;18.80;99.90;;;;;;2102103;28;20028;-72
2023/05/22 01:39:06;;;;;;;12.20;11.00;;;18.80;99.90;;;;;;2103849;28;20096;-72
2023/05/22 01:40:08;;;;;;;11.50;10.40;;;18.70;99.90;;;;;;2103061;28;20093;-72
2023/05/22 01:41:10;;;;;;;12.68;11.50;;;18.70;99.90;;;;;;2103451;28;20024;-72
2023/05/22 01:42:11;;;;;;;14.15;11.95;;;18.70;99.90;;;;;;2104720;28;20028;-72
2023/05/22 01:43:13;;;;;;;11.52;10.63;;;18.70;99.90;;;;;;2106494;28;20035;-72
2023/05/22 01:44:13;;;;;;;11.02;10.02;;;18.70;99.90;;;;;;2103628;28;20032;-72
2023/05/22 01:45:14;;;;;;;12.13;11.02;;;18.70;99.90;;;;;;2105522;28;20029;-72
2023/05/22 01:46:14;;;;;;;12.77;11.60;;;18.70;99.90;;;;;;2104258;28;20040;-72
2023/05/22 01:47:16;;;;;;;12.45;11.20;;;18.70;99.90;;;;;;2102041;28;20035;-72
2023/05/22 01:48:17;;;;;;;11.27;10.27;;;18.70;99.90;;;;;;2105055;28;20027;-72
2023/05/22 01:49:17;;;;;;;12.95;11.75;;;18.70;99.90;;;;;;2105245;28;20523;-72
2023/05/22 01:50:18;;;;;;;11.52;10.32;;;18.60;99.90;;;;;;2104583;28;20027;-72
2023/05/22 01:51:21;;;;;;;11.68;10.48;;;18.60;99.90;;;;;;2099959;28;20643;-72
2023/05/22 01:52:30;;;;;;;12.90;11.60;;;18.60;99.90;;;;;;2100725;28;20043;-72
2023/05/22 01:53:59;;;;;;;11.75;10.55;;;18.60;99.90;;;;;;2105152;28;20830;-72
2023/05/22 01:55:26;;;;;;;11.95;10.75;;;18.60;99.90;;;;;;2103977;28;20043;-72
2023/05/22 01:56:36;;;;;;;12.02;11.02;;;18.60;99.90;;;;;;2098434;28;20021;-72
2023/05/22 01:57:46;;;;;;;13.15;12.05;;;18.50;99.90;;;;;;2104082;28;20024;-72
2023/05/22 01:58:51;;;;;;;14.43;13.13;;;18.50;99.90;;;;;;2107091;28;20038;-72
2023/05/22 01:59:53;;;;;;;12.10;11.00;;;18.50;99.90;;;;;;2104487;28;20429;-72
2023/05/22 02:00:56;;;;;;;11.48;10.38;;;18.50;99.90;;;;;;2106659;28;20071;-72
2023/05/22 02:02:02;;;;;;;10.55;9.55;;;18.50;99.90;;;;;;2103345;28;20028;-72
2023/05/22 02:03:07;;;;;;;12.02;10.82;;;18.50;99.90;;;;;;2102234;28;20047;-73
2023/05/22 02:04:10;;;;;;;11.18;10.23;;;18.40;99.90;;;;;;2106077;28;20035;-72
2023/05/22 02:05:13;;;;;;;12.05;10.98;;;18.50;99.90;;;;;;2103471;28;20591;-72
2023/05/22 02:06:14;;;;;;;13.63;12.43;;;18.40;99.90;;;;;;2105091;28;20055;-72
2023/05/22 02:07:18;;;;;;;12.98;11.77;;;18.40;99.90;;;;;;2104603;28;20042;-72
2023/05/22 02:08:20;;;;;;;12.88;11.70;;;18.40;99.90;;;;;;2106081;28;20078;-72
2023/05/22 02:09:24;;;;;;;15.70;12.65;;;18.40;99.90;;;;;;2104128;28;20042;-72
2023/05/22 02:10:26;;;;;;;13.30;12.02;;;18.40;99.90;;;;;;2102407;28;20016;-72
2023/05/22 02:11:29;;;;;;;12.13;10.93;;;18.50;99.90;;;;;;2105442;28;20028;-72
2023/05/22 02:12:30;;;;;;;13.38;12.18;;;18.40;99.90;;;;;;2106553;28;20331;-72
2023/05/22 02:13:32;;;;;;;12.50;11.48;;;18.40;99.90;;;;;;2104516;28;20032;-72
2023/05/22 02:14:33;;;;;;;13.88;12.57;;;18.40;99.90;;;;;;2106220;28;20031;-73
2023/05/22 02:15:34;;;;;;;10.80;9.80;;;18.40;99.90;;;;;;2106728;28;20425;-73
2023/05/22 02:16:36;;;;;;;12.30;11.23;;;18.40;99.90;;;;;;2106176;28;20104;-72
2023/05/22 02:17:41;;;;;;;13.02;11.93;;;18.40;99.90;;;;;;2107282;28;20387;-72
2023/05/22 02:18:41;;;;;;;12.30;11.20;;;18.40;99.90;;;;;;2103413;28;20079;-72
2023/05/22 02:19:43;;;;;;;12.50;11.30;;;18.40;99.90;;;;;;2105837;28;20090;-72
2023/05/22 02:20:45;;;;;;;12.57;11.38;;;18.30;99.90;;;;;;2107129;28;20031;-72
2023/05/22 02:21:45;;;;;;;12.07;11.02;;;18.30;99.90;;;;;;2105483;28;20093;-72
2023/05/22 02:22:46;;;;;;;12.32;11.27;;;18.30;99.90;;;;;;2105197;28;20029;-72
2023/05/22 02:23:47;;;;;;;11.63;10.48;;;18.30;99.90;;;;;;2104935;28;20020;-72
2023/05/22 02:24:48;;;;;;;13.32;12.00;;;18.30;99.90;;;;;;2103204;28;20024;-72
2023/05/22 02:25:49;;;;;;;14.68;13.27;;;18.30;99.90;;;;;;2104263;28;20038;-72
2023/05/22 02:26:50;;;;;;;13.02;11.82;;;18.30;99.90;;;;;;2104862;28;20027;-72
2023/05/22 02:27:50;;;;;;;13.05;11.93;;;18.30;99.90;;;;;;2105885;28;20766;-72
2023/05/22 02:28:51;;;;;;;14.35;12.85;;;18.30;99.90;;;;;;2105290;28;20051;-72
2023/05/22 02:29:52;;;;;;;11.63;10.52;;;18.30;99.90;;;;;;2103884;28;20024;-72
2023/05/22 02:30:52;;;;;;;11.57;10.48;;;18.30;99.90;;;;;;2106706;28;20020;-72
2023/05/22 02:31:53;;;;;;;13.27;12.07;;;18.30;99.90;;;;;;2106571;28;20042;-72
2023/05/22 02:32:56;;;;;;;12.82;11.63;;;18.30;99.90;;;;;;2104909;28;20020;-72
2023/05/22 02:33:56;;;;;;;12.85;11.52;;;18.30;99.90;;;;;;2104821;28;20035;-72
2023/05/22 02:34:57;;;;;;;13.77;12.57;;;18.30;99.90;;;;;;2105266;28;20048;-72
2023/05/22 02:35:57;;;;;;;12.85;11.55;;;18.30;99.90;;;;;;2105166;28;20028;-72
2023/05/22 02:36:59;;;;;;;12.98;11.73;;;18.30;99.90;;;;;;2107356;28;20077;-72
2023/05/22 02:38:00;;;;;;;13.27;11.95;;;18.30;99.90;;;;;;2104743;28;20442;-72
2023/05/22 02:39:00;;;;;;;11.63;10.63;;;18.30;99.90;;;;;;2104379;28;20028;-72
2023/05/22 02:40:03;;;;;;;11.95;10.88;;;18.30;99.90;;;;;;2105433;28;20024;-72
2023/05/22 02:41:04;;;;;;;11.73;10.70;;;18.30;99.90;;;;;;2104943;28;20035;-72
2023/05/22 02:42:05;;;;;;;11.95;10.95;;;18.30;99.90;;;;;;2103161;28;20035;-72
2023/05/22 02:43:06;;;;;;;12.43;11.23;;;18.30;99.90;;;;;;2104970;28;20032;-72
2023/05/22 02:44:06;;;;;;;13.18;11.98;;;18.30;99.90;;;;;;2106022;28;20055;-72
2023/05/22 02:45:07;;;;;;;10.70;9.80;;;18.30;99.90;;;;;;2106727;28;20036;-72
2023/05/22 02:46:08;;;;;;;11.65;10.52;;;18.30;99.90;;;;;;2105552;28;20410;-72
2023/05/22 02:47:08;;;;;;;13.25;11.75;;;18.30;99.90;;;;;;2106782;28;20028;-72
2023/05/22 02:48:09;;;;;;;12.20;11.00;;;18.30;99.90;;;;;;2104400;28;20024;-72
2023/05/22 02:49:10;;;;;;;11.70;10.63;;;18.30;99.90;;;;;;2102770;28;20032;-72
2023/05/22 02:50:11;;;;;;;12.57;11.38;;;18.30;99.90;;;;;;2105285;28;20020;-72
2023/05/22 02:51:12;;;;;;;12.60;11.45;;;18.30;99.90;;;;;;2106018;28;20046;-72
2023/05/22 02:52:12;;;;;;;13.32;12.23;;;18.30;99.90;;;;;;2103771;28;20022;-72
2023/05/22 02:53:14;;;;;;;11.93;10.82;;;18.30;99.90;;;;;;2102169;28;20371;-72
2023/05/22 02:54:15;;;;;;;13.13;11.85;;;18.20;99.90;;;;;;2099138;28;20020;-72
2023/05/22 02:55:16;;;;;;;12.90;11.73;;;18.20;99.90;;;;;;2098563;28;20028;-72
2023/05/22 02:56:17;;;;;;;12.80;11.60;;;18.20;99.90;;;;;;2106588;28;20027;-72
2023/05/22 02:57:18;;;;;;;11.30;10.30;;;18.20;99.90;;;;;;2104600;28;20021;-72
2023/05/22 02:58:22;;;;;;;12.07;11.00;;;18.20;99.90;;;;;;2104240;28;20127;-72
2023/05/22 02:59:22;;;;;;;12.32;11.15;;;18.20;99.90;;;;;;2105529;28;20016;-72
2023/05/22 03:00:23;;;;;;;11.65;10.65;;;18.20;99.90;;;;;;2106177;28;20127;-72
2023/05/22 03:01:25;;;;;;;10.32;9.40;;;18.20;99.90;;;;;;2106143;28;20039;-72
2023/05/22 03:02:31;;;;;;;12.90;11.70;;;18.20;99.90;;;;;;2103304;28;20063;-72
2023/05/22 03:03:32;;;;;;;12.20;11.20;;;18.20;99.90;;;;;;2105455;28;20028;-72
2023/05/22 03:04:37;;;;;;;12.45;11.30;;;18.20;99.90;;;;;;2105497;28;20020;-72
2023/05/22 03:05:38;;;;;;;11.30;10.15;;;18.10;99.90;;;;;;2105689;28;20028;-72
2023/05/22 03:06:39;;;;;;;13.32;11.55;;;18.20;99.90;;;;;;2103340;28;20048;-72
2023/05/22 03:07:40;;;;;;;12.15;10.60;;;18.10;99.90;;;;;;2103730;28;20032;-72
2023/05/22 03:08:42;;;;;;;12.32;11.07;;;18.10;99.90;;;;;;2104451;28;20094;-72
2023/05/22 03:09:42;;;;;;;13.10;11.90;;;18.10;99.90;;;;;;2104428;28;20097;-72
2023/05/22 03:10:43;;;;;;;11.18;10.07;;;18.10;99.90;;;;;;2105685;28;20798;-72
2023/05/22 03:11:43;;;;;;;12.38;11.27;;;18.10;99.90;;;;;;2104352;28;20020;-72
2023/05/22 03:12:44;;;;;;;12.10;11.02;;;18.10;99.90;;;;;;2105812;28;20024;-72
2023/05/22 03:13:45;;;;;;;12.02;10.93;;;18.10;99.90;;;;;;2106313;28;20020;-72
2023/05/22 03:14:45;;;;;;;12.73;11.48;;;18.10;99.90;;;;;;2104591;28;20028;-72
2023/05/22 03:15:46;;;;;;;12.73;11.70;;;18.10;99.90;;;;;;2106592;28;20503;-72
2023/05/22 03:16:46;;;;;;;12.63;11.52;;;18.10;99.90;;;;;;2106928;28;20453;-72
2023/05/22 03:17:47;;;;;;;11.43;10.43;;;18.10;99.90;;;;;;2102366;28;20101;-72
2023/05/22 03:18:49;;;;;;;11.35;10.40;;;18.10;99.90;;;;;;2104487;28;20030;-72
2023/05/22 03:19:50;;;;;;;10.23;9.43;;;18.10;99.90;;;;;;2104372;28;20023;-72
2023/05/22 03:20:50;;;;;;;11.60;10.50;;;18.00;99.90;;;;;;2108395;28;20119;-72
2023/05/22 03:21:51;;;;;;;12.73;11.52;;;18.00;99.90;;;;;;2103378;28;20012;-72
2023/05/22 03:22:51;;;;;;;12.73;11.65;;;18.00;99.90;;;;;;2103907;28;20064;-72
2023/05/22 03:23:52;;;;;;;13.18;11.88;;;18.00;99.90;;;;;;2105616;28;20051;-72
2023/05/22 03:24:52;;;;;;;12.05;10.95;;;18.00;99.90;;;;;;2104188;28;20024;-72
2023/05/22 03:25:53;;;;;;;13.45;11.98;;;18.00;99.90;;;;;;2105978;28;20099;-72
2023/05/22 03:26:54;;;;;;;11.65;10.55;;;18.00;99.90;;;;;;2104322;28;20020;-72
2023/05/22 03:27:54;;;;;;;13.52;12.38;;;18.00;99.90;;;;;;2104312;28;20020;-72
2023/05/22 03:28:55;;;;;;;12.63;11.40;;;18.00;99.90;;;;;;2109549;28;20099;-72
2023/05/22 03:29:56;;;;;;;11.63;10.60;;;18.00;99.90;;;;;;2105403;28;20027;-72
2023/05/22 03:30:56;;;;;;;12.90;11.73;;;17.90;99.90;;;;;;2106650;28;20111;-72
2023/05/22 03:31:57;;;;;;;12.27;11.10;;;18.00;99.90;;;;;;2105012;28;20024;-72
2023/05/22 03:32:58;;;;;;;13.02;11.82;;;17.90;99.90;;;;;;2105597;28;20031;-72
2023/05/22 03:33:59;;;;;;;11.02;10.02;;;17.90;99.90;;;;;;2104464;28;20562;-72
2023/05/22 03:34:59;;;;;;;11.73;10.73;;;17.90;99.90;;;;;;2104591;28;20424;-72
2023/05/22 03:36:00;;;;;;;11.65;10.65;;;17.90;99.90;;;;;;2106877;28;20042;-72
2023/05/22 03:37:01;;;;;;;13.05;11.90;;;17.90;99.90;;;;;;2104349;28;20450;-72
2023/05/22 03:38:01;;;;;;;12.55;11.45;;;17.90;99.90;;;;;;2105352;28;20116;-72
2023/05/22 03:39:02;;;;;;;13.98;12.73;;;17.90;99.90;;;;;;2105587;28;20044;-72
2023/05/22 03:40:03;;;;;;;14.13;12.90;;;17.90;99.90;;;;;;2104527;28;20105;-72
2023/05/22 03:41:04;;;;;;;14.38;12.88;;;17.90;99.90;;;;;;2105687;28;20070;-72
2023/05/22 03:42:05;;;;;;;10.60;9.70;;;17.80;99.90;;;;;;2104973;28;20028;-72
2023/05/22 03:43:06;;;;;;;12.45;11.35;;;17.80;99.90;;;;;;2104596;28;20032;-72
2023/05/22 03:44:06;;;;;;;13.43;12.32;;;17.80;99.90;;;;;;2101614;28;20261;-72
2023/05/22 03:45:07;;;;;;;13.38;12.27;;;17.80;99.90;;;;;;2104059;28;20036;-72
2023/05/22 03:46:09;;;;;;;12.27;11.23;;;17.80;99.90;;;;;;2105372;28;20032;-72
2023/05/22 03:47:10;;;;;;;13.18;11.88;;;17.80;99.90;;;;;;2105031;28;20024;-72
2023/05/22 03:48:11;;;;;;;13.57;12.38;;;17.80;99.90;;;;;;2103176;28;20508;-72
2023/05/22 03:49:12;;;;;;;14.48;13.07;;;17.80;99.90;;;;;;2102669;28;20012;-72
2023/05/22 03:50:12;;;;;;;13.63;12.43;;;17.80;99.90;;;;;;2104605;28;20061;-72
2023/05/22 03:51:13;;;;;;;12.77;11.68;;;17.80;99.90;;;;;;2103636;28;20024;-72
2023/05/22 03:52:13;;;;;;;13.35;11.75;;;17.80;99.90;;;;;;2103063;28;20056;-72
2023/05/22 03:53:14;;;;;;;14.15;12.80;;;17.80;99.90;;;;;;2105202;28;20027;-72
2023/05/22 03:54:14;;;;;;;12.98;11.77;;;17.70;99.90;;;;;;2103819;28;20039;-72
2023/05/22 03:55:15;;;;;;;14.00;12.70;;;17.70;99.90;;;;;;2104010;28;20052;-72
2023/05/22 03:56:16;;;;;;;14.15;12.75;;;17.70;99.90;;;;;;2104325;28;20107;-72
2023/05/22 03:57:18;;;;;;;14.23;12.90;;;17.70;99.90;;;;;;2104587;28;20020;-72
2023/05/22 03:58:19;;;;;;;14.57;13.18;;;17.70;99.90;;;;;;2105348;28;20039;-72
2023/05/22 03:59:20;;;;;;;15.77;14.18;;;17.70;99.90;;;;;;2102989;28;20565;-72
2023/05/22 04:00:21;;;;;;;14.82;13.55;;;17.70;99.90;;;;;;2103527;28;20057;-72
2023/05/22 04:01:22;;;;;;;15.98;14.48;;;17.80;99.90;;;;;;2103195;28;20020;-72
2023/05/22 04:02:25;;;;;;;16.27;14.77;;;17.70;99.90;;;;;;2103152;28;20028;-72
2023/05/22 04:03:26;;;;;;;16.25;14.60;;;17.70;99.90;;;;;;2104330;28;20924;-72
2023/05/22 04:04:27;;;;;;;15.68;14.18;;;17.70;99.90;;;;;;2103501;28;20555;-72
2023/05/22 04:05:29;;;;;;;13.93;12.68;;;17.70;99.90;;;;;;2103814;28;20495;-72
2023/05/22 04:06:31;;;;;;;13.95;12.65;;;17.70;99.90;;;;;;2105736;28;20085;-72
2023/05/22 04:07:32;;;;;;;15.32;13.93;;;17.70;99.90;;;;;;2106592;28;20024;-72
2023/05/22 04:08:33;;;;;;;14.73;13.35;;;17.70;99.90;;;;;;2104200;28;20021;-72
2023/05/22 04:09:35;;;;;;;14.95;13.65;;;17.70;99.90;;;;;;2104572;28;20016;-72
2023/05/22 04:10:37;;;;;;;14.13;12.93;;;17.70;99.90;;;;;;2104445;28;20013;-72
2023/05/22 04:11:38;;;;;;;15.45;13.95;;;17.70;99.90;;;;;;2101250;28;20020;-72
2023/05/22 04:12:39;;;;;;;16.10;14.40;;;17.70;99.90;;;;;;2103833;28;20032;-72
2023/05/22 04:13:39;;;;;;;13.98;12.77;;;17.70;99.90;;;;;;2103910;28;20069;-72
2023/05/22 04:14:40;;;;;;;12.55;11.55;;;17.70;99.90;;;;;;2105423;28;20020;-72
2023/05/22 04:15:43;;;;;;;14.15;12.85;;;17.70;99.90;;;;;;2104494;28;20542;-72
2023/05/22 04:16:43;;;;;;;15.40;14.00;;;17.70;99.90;;;;;;2103187;28;20035;-72
2023/05/22 04:17:46;;;;;;;15.52;14.13;;;17.70;99.90;;;;;;2104657;28;20024;-72
2023/05/22 04:18:46;;;;;;;15.13;13.63;;;17.70;99.90;;;;;;2104128;28;20062;-72
2023/05/22 04:19:47;;;;;;;14.98;13.55;;;17.70;99.90;;;;;;2105047;28;20078;-72
2023/05/22 04:20:50;;;;;;;15.02;13.63;;;17.70;99.90;;;;;;2102741;28;20029;-72
2023/05/22 04:21:51;;;;;;;15.32;13.93;;;17.80;99.90;;;;;;2104447;28;20059;-72
2023/05/22 04:22:53;;;;;;;15.80;14.40;;;17.80;99.90;;;;;;2107142;28;20286;-72
2023/05/22 04:23:53;;;;;;;16.33;14.82;;;17.80;99.90;;;;;;2103973;28;20114;-72
2023/05/22 04:24:54;;;;;;;17.15;15.52;;;17.80;99.90;;;;;;2106409;28;20012;-72
2023/05/22 04:25:54;;;;;;;15.63;14.02;;;17.80;99.90;;;;;;2105290;28;20027;-72
2023/05/22 04:26:59;;;;;;;14.85;13.45;;;17.80;99.90;;;;;;2106063;28;20032;-72
2023/05/22 04:28:02;;;;;;;14.18;12.98;;;17.80;99.90;;;;;;2105625;28;20017;-72
2023/05/22 04:29:05;;;;;;;15.85;14.38;;;17.80;99.90;;;;;;2103096;28;20020;-72
2023/05/22 04:30:07;;;;;;;15.43;14.02;;;17.80;99.90;;;;;;2103918;28;20502;-72
2023/05/22 04:31:08;;;;;;;16.13;14.63;;;17.80;99.90;;;;;;2104835;28;20039;-72
2023/05/22 04:32:09;;;;;;;16.30;14.80;;;17.80;99.90;;;;;;2106328;28;20024;-72
2023/05/22 04:33:11;;;;;;;15.02;13.73;;;17.80;99.90;;;;;;2103503;28;20031;-72
2023/05/22 04:34:14;;;;;;;15.18;13.85;;;17.80;99.90;;;;;;2101429;28;21539;-72
2023/05/22 04:35:17;;;;;;;15.10;13.63;;;17.80;99.90;;;;;;2104020;28;20484;-72
2023/05/22 04:36:21;;;;;;;15.25;13.85;;;17.80;99.90;;;;;;2106442;28;20146;-72
2023/05/22 04:37:23;;;;;;;14.80;13.40;;;17.80;99.90;;;;;;2105026;28;20107;-72
2023/05/22 04:38:25;;;;;;;14.20;12.90;;;17.80;99.90;;;;;;2101368;28;20488;-72
2023/05/22 04:39:25;;;;;;;14.32;12.93;;;17.90;99.90;;;;;;2104814;28;20031;-72
2023/05/22 04:40:28;;;;;;;14.82;13.38;;;17.90;99.90;;;;;;2102354;28;20027;-72
2023/05/22 04:41:29;;;;;;;14.68;13.38;;;17.90;99.90;;;;;;2101676;28;20035;-72
2023/05/22 04:42:30;;;;;;;15.27;13.90;;;17.90;99.90;;;;;;2102822;28;20480;-72
2023/05/22 04:43:31;;;;;;;15.43;14.13;;;17.90;99.90;;;;;;2102957;28;20435;-72
2023/05/22 04:44:33;;;;;;;17.17;15.50;;;17.90;99.90;;;;;;2103733;28;20034;-72
2023/05/22 04:45:34;;;;;;;15.30;13.98;;;17.90;99.90;;;;;;2104210;28;20028;-72
2023/05/22 04:46:34;;;;;;;17.08;15.35;;;18.00;99.90;;;;;;2103895;28;20096;-72
2023/05/22 04:47:37;;;;;;;16.77;15.18;;;18.00;99.90;;;;;;2105001;28;20023;-72
2023/05/22 04:48:39;;;;;;;15.75;14.35;;;17.90;99.90;;;;;;2102894;28;20021;-72
2023/05/22 04:49:41;;;;;;;15.60;14.05;;;18.00;99.90;;;;;;2103129;28;20107;-72
2023/05/22 04:50:45;;;;;;;17.88;16.17;;;18.00;99.90;;;;;;2101770;28;20111;-72
2023/05/22 04:51:45;;;;;;;16.90;15.40;;;18.00;99.90;;;;;;2102905;28;20019;-72
2023/05/22 04:52:47;;;;;;;15.18;13.82;;;18.00;99.90;;;;;;2102685;28;20074;-72
2023/05/22 04:53:48;;;;;;;17.20;15.60;;;18.00;99.90;;;;;;2103885;28;20388;-72
2023/05/22 04:54:51;;;;;;;16.02;14.50;;;18.00;99.90;;;;;;2103644;28;20024;-72
2023/05/22 04:55:51;;;;;;;15.82;14.35;;;18.10;99.90;;;;;;2103833;28;20016;-72
2023/05/22 04:56:52;;;;;;;16.98;15.52;;;18.10;99.90;;;;;;2106613;28;20175;-72
2023/05/22 04:57:52;;;;;;;17.38;15.68;;;18.00;99.90;;;;;;2104593;28;20028;-72
2023/05/22 04:58:54;;;;;;;17.92;16.17;;;18.10;99.90;;;;;;2102341;28;20181;-72
2023/05/22 04:59:56;;;;;;;17.02;15.43;;;18.10;99.90;;;;;;2105310;28;20078;-72
2023/05/22 05:00:57;;;;;;;16.55;14.95;;;18.10;99.90;;;;;;2103193;28;20020;-72
2023/05/22 05:01:58;;;;;;;17.45;15.65;;;18.10;99.90;;;;;;2102898;28;20059;-72
2023/05/22 05:02:59;;;;;;;17.27;15.57;;;18.10;99.90;;;;;;2095146;28;20028;-72
2023/05/22 05:04:00;;;;;;;16.15;14.70;;;18.20;99.90;;;;;;2103579;28;20019;-72
2023/05/22 05:05:01;;;;;;;16.70;15.13;;;18.10;99.90;;;;;;2102408;28;20052;-72
2023/05/22 05:06:02;;;;;;;17.00;15.43;;;18.20;99.90;;;;;;2104053;28;20487;-72
2023/05/22 05:07:03;;;;;;;16.42;14.77;;;18.20;99.90;;;;;;2100913;28;20103;-72
2023/05/22 05:08:04;;;;;;;15.93;14.52;;;18.20;99.90;;;;;;2100468;28;20073;-72
2023/05/22 05:09:05;;;;;;;17.42;15.85;;;18.30;99.90;;;;;;2103379;28;20105;-72
2023/05/22 05:10:06;;;;;;;16.70;15.10;;;18.20;99.90;;;;;;2103763;28;20089;-72
2023/05/22 05:11:06;;;;;;;17.42;15.80;;;18.30;99.90;;;;;;2103682;28;20024;-72
2023/05/22 05:12:07;;;;;;;16.15;14.63;;;18.30;99.90;;;;;;2105033;28;20851;-72
2023/05/22 05:13:08;;;;;;;14.35;13.15;;;18.30;99.90;;;;;;2102980;28;20382;-72
2023/05/22 05:14:08;;;;;;;17.17;15.43;;;18.30;99.90;;;;;;2103882;28;20039;-72
2023/05/22 05:15:09;;;;;;;15.32;13.93;;;18.30;99.90;;;;;;2104007;28;20035;-72
2023/05/22 05:16:10;;;;;;;17.38;15.77;;;18.30;99.90;;;;;;2102027;28;20065;-72
2023/05/22 05:17:10;;;;;;;16.02;14.52;;;18.40;99.90;;;;;;2101496;28;20032;-72
2023/05/22 05:18:11;;;;;;;15.10;13.82;;;18.40;99.90;;;;;;2101838;28;20028;-72